Time;durP1;ratioP1;P1;durP2;ratioP2;P2;SDS_P1;SDS_P2;PMS_P1;PMS_P2;Temp;Humidity;BMP_temperature;BMP_pressure;BME280_temperature;BME280_humidity;BME280_pressure;Samples;Min_cycle;Max_cycle;Signal;HPM_P1;HPM_P2
2021/09/23 00:00:53;;;;;;;14.60;4.97;;;;;;;9.11;100.00;97017.16;4973104;28;20031;-75
2021/09/23 00:05:54;;;;;;;9.97;5.27;;;;;;;9.12;100.00;97010.13;4981475;28;20062;-76
2021/09/23 00:08:20;;;;;;;14.40;6.03;;;;;;;9.10;100.00;97010.28;4979081;28;20485;-76
2021/09/23 00:10:46;;;;;;;12.73;5.60;;;;;;;9.06;100.00;97006.25;4981247;28;20134;-76
2021/09/23 00:13:13;;;;;;;9.10;5.60;;;;;;;8.98;100.00;97003.44;4981651;28;20109;-76
2021/09/23 00:15:40;;;;;;;10.03;5.67;;;;;;;8.94;100.00;96999.41;4969739;28;20456;-76
2021/09/23 00:18:12;;;;;;;10.13;5.57;;;;;;;8.97;100.00;97001.78;4980353;28;20033;-76
2021/09/23 00:20:41;;;;;;;10.03;5.13;;;;;;;9.04;100.00;97002.09;4980923;28;20026;-75
2021/09/23 00:23:07;;;;;;;12.67;5.10;;;;;;;9.01;100.00;96992.69;4971371;28;20027;-76
2021/09/23 00:25:34;;;;;;;12.33;5.17;;;;;;;8.92;100.00;96994.31;4972889;28;20041;-75
2021/09/23 00:28:01;;;;;;;8.13;5.57;;;;;;;8.80;100.00;96994.50;4996930;28;20054;-76
2021/09/23 00:30:27;;;;;;;12.77;5.60;;;;;;;8.58;100.00;96985.81;4969923;28;21901;-76
2021/09/23 00:32:54;;;;;;;10.67;5.67;;;;;;;8.56;100.00;96997.41;4974425;28;20129;-76
2021/09/23 00:35:20;;;;;;;10.27;5.20;;;;;;;8.58;100.00;96992.84;4970171;28;20031;-76
2021/09/23 00:37:47;;;;;;;13.67;5.53;;;;;;;8.66;100.00;96986.00;4970953;28;20490;-76
2021/09/23 00:40:13;;;;;;;13.30;5.70;;;;;;;8.74;100.00;96986.19;4983472;28;20064;-75
2021/09/23 00:42:40;;;;;;;10.63;5.63;;;;;;;9.04;100.00;96986.34;4988441;28;20033;-76
2021/09/23 00:45:08;;;;;;;10.73;5.20;;;;;;;9.32;100.00;96987.41;4957909;28;20027;-76
2021/09/23 00:47:34;;;;;;;14.00;6.27;;;;;;;9.33;100.00;96986.47;4960068;28;20019;-75
2021/09/23 00:50:02;;;;;;;10.97;5.23;;;;;;;9.54;100.00;96989.84;4969619;28;20038;-76
2021/09/23 00:52:31;;;;;;;10.77;5.33;;;;;;;9.74;100.00;96984.66;4962714;28;20018;-76
2021/09/23 00:54:58;;;;;;;9.57;5.13;;;;;;;9.80;100.00;96984.94;4955905;28;20031;-76
2021/09/23 00:57:24;;;;;;;13.47;5.77;;;;;;;9.75;100.00;96973.16;4977716;28;20038;-76
2021/09/23 00:59:53;;;;;;;14.47;6.07;;;;;;;9.70;100.00;96970.13;4977045;28;20088;-76
2021/09/23 01:02:20;;;;;;;14.43;6.57;;;;;;;9.70;100.00;96975.38;4962716;28;20031;-76
2021/09/23 01:04:49;;;;;;;10.47;5.27;;;;;;;9.59;100.00;96968.41;4993895;28;20031;-76
2021/09/23 01:07:17;;;;;;;12.50;5.33;;;;;;;9.64;100.00;96969.69;4968717;28;20039;-76
2021/09/23 01:09:52;;;;;;;10.00;5.77;;;;;;;9.46;100.00;96971.31;4967905;28;20459;-76
2021/09/23 01:12:22;;;;;;;10.67;5.20;;;;;;;9.33;100.00;96960.22;4967630;28;20468;-76
2021/09/23 01:14:49;;;;;;;9.00;5.60;;;;;;;9.26;100.00;96961.72;4967987;28;20030;-76
2021/09/23 01:17:16;;;;;;;8.43;5.73;;;;;;;9.18;100.00;96963.19;4961519;28;20031;-76
2021/09/23 01:19:55;;;;;;;9.93;5.33;;;;;;;9.09;100.00;96955.31;5004505;28;20045;-76
2021/09/23 01:22:21;;;;;;;8.97;4.73;;;;;;;8.98;100.00;96951.78;4985670;28;20488;-75
2021/09/23 01:25:16;;;;;;;12.23;5.80;;;;;;;8.88;100.00;96963.19;4968601;28;20023;-76
2021/09/23 01:27:44;;;;;;;11.73;6.03;;;;;;;8.81;100.00;96955.03;4976748;28;20113;-75
2021/09/23 01:30:13;;;;;;;11.43;5.60;;;;;;;8.84;100.00;96956.56;4977402;28;20038;-75
2021/09/23 01:32:43;;;;;;;11.73;5.87;;;;;;;8.83;100.00;96960.16;4964437;28;20026;-75
2021/09/23 01:35:11;;;;;;;9.30;5.87;;;;;;;8.86;100.00;96958.09;4986997;28;20035;-76
2021/09/23 01:37:37;;;;;;;10.23;5.40;;;;;;;8.82;100.00;96955.84;4973194;28;20018;-75
2021/09/23 01:40:06;;;;;;;13.10;5.67;;;;;;;8.74;100.00;96959.13;4980604;28;20072;-76
2021/09/23 01:42:32;;;;;;;12.20;6.20;;;;;;;8.66;100.00;96953.72;4977753;28;20041;-76
2021/09/23 01:44:58;;;;;;;9.10;5.77;;;;;;;8.66;100.00;96957.16;4980020;28;20519;-76
2021/09/23 01:47:26;;;;;;;9.97;5.57;;;;;;;8.69;100.00;96949.03;4965272;28;20086;-76
2021/09/23 01:49:55;;;;;;;9.00;5.57;;;;;;;8.70;100.00;96947.25;4985876;28;20027;-75
2021/09/23 01:52:22;;;;;;;10.93;5.73;;;;;;;8.66;100.00;96941.44;4977254;28;20030;-76
2021/09/23 01:55:05;;;;;;;8.70;4.70;;;;;;;8.63;100.00;96935.63;4987333;28;20607;-76
2021/09/23 01:57:31;;;;;;;8.90;5.23;;;;;;;8.57;100.00;96942.22;4963929;28;20163;-76
2021/09/23 01:59:57;;;;;;;9.73;5.20;;;;;;;8.54;100.00;96942.47;4971758;28;20038;-76
2021/09/23 02:02:28;;;;;;;8.77;4.53;;;;;;;8.56;100.00;96937.94;4971322;28;20038;-76
2021/09/23 02:04:54;;;;;;;10.00;5.30;;;;;;;8.50;100.00;96933.19;4964133;28;20042;-75
2021/09/23 02:07:22;;;;;;;12.27;5.77;;;;;;;8.48;100.00;96924.63;4996704;28;20108;-75
2021/09/23 02:09:53;;;;;;;8.83;5.40;;;;;;;8.53;100.00;96925.09;4999217;28;20561;-75
2021/09/23 02:12:22;;;;;;;17.20;6.73;;;;;;;8.66;100.00;96928.31;4970865;28;20031;-76
2021/09/23 02:14:48;;;;;;;8.13;5.30;;;;;;;8.60;100.00;96925.41;4994187;28;20050;-76
2021/09/23 02:17:14;;;;;;;8.87;5.00;;;;;;;8.61;100.00;96922.63;4970742;28;20566;-76
2021/09/23 02:19:54;;;;;;;10.37;5.30;;;;;;;8.71;100.00;96926.13;4987998;28;20022;-76
2021/09/23 02:22:20;;;;;;;9.70;4.70;;;;;;;8.65;100.00;96918.81;4962568;28;20042;-76
2021/09/23 02:24:49;;;;;;;13.90;5.57;;;;;;;8.70;100.00;96918.41;4966646;28;20089;-76
2021/09/23 02:27:14;;;;;;;10.70;5.60;;;;;;;8.82;100.00;96909.50;4981879;28;20035;-76
2021/09/23 02:29:41;;;;;;;9.37;4.50;;;;;;;8.70;100.00;96906.13;4979850;28;20023;-76
2021/09/23 02:32:07;;;;;;;6.90;3.97;;;;;;;8.61;100.00;96901.66;4991230;28;20098;-76
2021/09/23 02:34:33;;;;;;;8.57;4.67;;;;;;;8.54;100.00;96900.53;4975987;28;20407;-75
2021/09/23 02:36:59;;;;;;;10.13;5.20;;;;;;;8.52;100.00;96891.97;4967922;28;20039;-76
2021/09/23 02:39:25;;;;;;;9.80;5.30;;;;;;;8.44;100.00;96889.97;4971607;28;20023;-76
2021/09/23 02:41:51;;;;;;;10.37;4.93;;;;;;;8.41;100.00;96886.78;4978813;28;20163;-75
2021/09/23 02:44:17;;;;;;;8.30;4.87;;;;;;;8.37;100.00;96895.84;4972448;28;20043;-76
2021/09/23 02:46:43;;;;;;;9.67;5.00;;;;;;;8.35;100.00;96896.00;4982504;28;20030;-75
2021/09/23 02:49:09;;;;;;;11.03;5.73;;;;;;;8.21;100.00;96894.50;4997367;28;20038;-76
2021/09/23 02:51:35;;;;;;;8.47;4.63;;;;;;;8.13;100.00;96896.94;4985764;28;20129;-78
2021/09/23 02:54:01;;;;;;;7.60;4.50;;;;;;;8.06;100.00;96895.78;4979373;28;20174;-75
2021/09/23 02:56:26;;;;;;;8.13;4.80;;;;;;;8.04;100.00;96893.28;4993699;28;20038;-76
2021/09/23 02:58:52;;;;;;;9.17;5.83;;;;;;;7.98;100.00;96885.97;4977434;28;20025;-75
2021/09/23 03:01:19;;;;;;;9.20;5.50;;;;;;;7.99;100.00;96894.66;4995149;28;20035;-76
2021/09/23 03:03:45;;;;;;;8.67;5.60;;;;;;;7.90;100.00;96880.50;4968217;28;20106;-76
2021/09/23 03:06:11;;;;;;;13.07;6.07;;;;;;;7.92;100.00;96890.88;4967212;28;20049;-76
2021/09/23 03:08:37;;;;;;;11.27;5.83;;;;;;;7.79;100.00;96886.63;4970828;28;20023;-76
2021/09/23 03:11:03;;;;;;;8.73;6.17;;;;;;;7.83;100.00;96883.78;4965576;28;20094;-76
2021/09/23 03:13:29;;;;;;;10.30;5.63;;;;;;;7.84;100.00;96872.31;4982600;28;20026;-76
2021/09/23 03:15:55;;;;;;;9.43;5.53;;;;;;;7.79;100.00;96870.09;4984589;28;20170;-77
2021/09/23 03:18:21;;;;;;;12.53;6.33;;;;;;;7.83;100.00;96862.81;4995635;28;20037;-76
2021/09/23 03:20:47;;;;;;;12.67;7.03;;;;;;;7.79;100.00;96864.88;4982747;28;20035;-76
2021/09/23 03:23:15;;;;;;;9.40;5.60;;;;;;;7.79;100.00;96851.78;4972451;28;20034;-76
2021/09/23 03:25:41;;;;;;;8.33;4.97;;;;;;;7.79;100.00;96849.16;4994880;28;20113;-76
2021/09/23 03:28:07;;;;;;;14.30;6.07;;;;;;;7.73;100.00;96847.88;4967858;28;20026;-76
2021/09/23 03:30:34;;;;;;;9.87;5.33;;;;;;;7.75;100.00;96850.38;4978569;28;20035;-76
2021/09/23 03:33:09;;;;;;;9.30;5.33;;;;;;;7.72;100.00;96848.81;4970938;28;20037;-76
2021/09/23 03:35:38;;;;;;;8.60;5.47;;;;;;;7.60;100.00;96849.81;4969140;28;20026;-77
2021/09/23 03:38:05;;;;;;;9.20;5.33;;;;;;;7.67;100.00;96843.13;4965725;28;20472;-76
2021/09/23 03:40:31;;;;;;;10.57;5.57;;;;;;;7.64;100.00;96856.47;4983724;28;20026;-78
2021/09/23 03:42:57;;;;;;;9.67;5.67;;;;;;;7.61;100.00;96850.66;4980929;28;20030;-76
2021/09/23 03:45:23;;;;;;;11.10;5.63;;;;;;;7.65;100.00;96846.84;4982843;28;20759;-76
2021/09/23 03:47:50;;;;;;;9.90;5.63;;;;;;;7.58;100.00;96838.66;4990271;28;20033;-76
2021/09/23 03:50:16;;;;;;;9.63;5.43;;;;;;;7.59;100.00;96855.19;5002979;28;20041;-76
2021/09/23 03:52:43;;;;;;;10.40;5.30;;;;;;;7.62;100.00;96850.53;4970819;28;20486;-77
2021/09/23 03:55:10;;;;;;;10.93;6.13;;;;;;;7.63;100.00;96851.38;4984405;28;20049;-76
2021/09/23 03:57:36;;;;;;;9.27;5.20;;;;;;;7.62;100.00;96842.69;4977929;28;20030;-76
2021/09/23 04:00:03;;;;;;;8.30;5.27;;;;;;;7.61;100.00;96842.78;4979587;28;20034;-76
2021/09/23 04:02:29;;;;;;;11.03;5.70;;;;;;;7.59;100.00;96839.50;4989686;28;20041;-76
2021/09/23 04:04:55;;;;;;;9.27;5.50;;;;;;;7.53;100.00;96832.97;4973596;28;20106;-76
2021/09/23 04:07:22;;;;;;;10.13;5.70;;;;;;;7.54;100.00;96832.84;4975866;28;20056;-76
2021/09/23 04:09:48;;;;;;;13.57;5.47;;;;;;;7.47;100.00;96823.00;4966879;28;20534;-77
2021/09/23 04:12:15;;;;;;;9.63;5.50;;;;;;;7.32;100.00;96812.81;4965778;28;20059;-77
2021/09/23 04:14:41;;;;;;;10.30;5.77;;;;;;;7.56;100.00;96801.31;4992815;28;20121;-77
2021/09/23 04:17:07;;;;;;;11.47;5.30;;;;;;;7.54;100.00;96800.59;4979819;28;20058;-77
2021/09/23 04:19:33;;;;;;;9.93;6.20;;;;;;;7.56;100.00;96793.44;4962748;28;20031;-77
2021/09/23 04:21:58;;;;;;;13.27;6.73;;;;;;;7.55;100.00;96794.41;4970122;28;20379;-77
2021/09/23 04:24:24;;;;;;;14.47;7.17;;;;;;;7.70;100.00;96801.00;4989713;28;20042;-78
2021/09/23 04:26:50;;;;;;;13.20;7.57;;;;;;;7.68;100.00;96797.69;4999797;28;20026;-77
2021/09/23 04:29:17;;;;;;;14.57;7.10;;;;;;;7.57;100.00;96795.09;4977167;28;20038;-78
2021/09/23 04:31:43;;;;;;;10.93;7.40;;;;;;;7.47;100.00;96786.34;4959413;28;20023;-77
2021/09/23 04:34:09;;;;;;;12.13;6.70;;;;;;;7.54;100.00;96782.28;4965920;28;20122;-77
2021/09/23 04:36:35;;;;;;;13.00;6.90;;;;;;;7.63;100.00;96784.13;4986022;28;20479;-77
2021/09/23 04:39:01;;;;;;;15.43;7.70;;;;;;;7.68;100.00;96779.34;4958210;28;20034;-77
2021/09/23 04:41:26;;;;;;;16.87;7.50;;;;;;;7.72;100.00;96775.53;4970179;28;20425;-77
2021/09/23 04:43:53;;;;;;;11.17;7.23;;;;;;;7.72;100.00;96777.31;4971576;28;20117;-77
2021/09/23 04:46:21;;;;;;;16.03;6.83;;;;;;;7.78;100.00;96777.63;4970422;28;20066;-77
2021/09/23 04:48:53;;;;;;;19.23;7.07;;;;;;;7.85;100.00;96783.19;4986562;28;20157;-77
2021/09/23 04:51:23;;;;;;;13.13;6.93;;;;;;;7.92;100.00;96780.88;4988771;28;20105;-77
2021/09/23 04:53:50;;;;;;;14.53;7.23;;;;;;;8.02;100.00;96779.16;4989535;28;20084;-77
2021/09/23 04:56:15;;;;;;;12.77;8.67;;;;;;;8.04;100.00;96778.03;4964503;28;20030;-77
2021/09/23 04:58:41;;;;;;;11.13;7.30;;;;;;;8.05;100.00;96773.66;4962358;28;20397;-77
2021/09/23 05:01:07;;;;;;;10.53;6.70;;;;;;;8.03;100.00;96775.56;4971931;28;20112;-77
2021/09/23 05:03:33;;;;;;;12.33;6.23;;;;;;;7.98;100.00;96769.88;4980300;28;20121;-77
2021/09/23 05:05:59;;;;;;;11.47;6.23;;;;;;;7.95;100.00;96770.97;4973838;28;21700;-77
2021/09/23 05:08:25;;;;;;;12.50;6.17;;;;;;;7.97;100.00;96765.59;4980325;28;20038;-77
2021/09/23 05:10:51;;;;;;;16.23;7.60;;;;;;;7.99;100.00;96759.28;4972894;28;20023;-77
2021/09/23 05:13:17;;;;;;;14.47;6.33;;;;;;;7.99;100.00;96753.22;4971010;28;20042;-77
2021/09/23 05:15:43;;;;;;;14.97;9.40;;;;;;;8.04;100.00;96761.50;4982209;28;20022;-77
2021/09/23 05:18:10;;;;;;;19.47;9.17;;;;;;;8.10;100.00;96747.88;5003936;28;20096;-77
2021/09/23 05:20:36;;;;;;;19.20;8.87;;;;;;;8.19;100.00;96744.47;4967250;28;20029;-78
2021/09/23 05:23:03;;;;;;;13.37;7.37;;;;;;;8.35;100.00;96738.75;4979911;28;20027;-77
2021/09/23 05:25:29;;;;;;;11.47;7.17;;;;;;;8.58;100.00;96742.00;4976116;28;20057;-77
2021/09/23 05:27:55;;;;;;;18.30;7.03;;;;;;;8.74;100.00;96731.81;4981124;28;20373;-78
2021/09/23 05:30:21;;;;;;;11.60;6.70;;;;;;;8.94;100.00;96724.81;4962357;28;20541;-77
2021/09/23 05:32:47;;;;;;;12.30;6.87;;;;;;;9.17;100.00;96720.13;4983078;28;20189;-77
2021/09/23 05:35:14;;;;;;;16.60;8.27;;;;;;;9.40;98.52;96719.84;4999762;28;20218;-77
2021/09/23 05:37:40;;;;;;;15.93;8.70;;;;;;;9.79;96.51;96717.13;4972524;28;20035;-77
2021/09/23 05:40:08;;;;;;;21.33;10.90;;;;;;;10.09;94.17;96721.31;4979775;28;20016;-77
2021/09/23 05:42:35;;;;;;;18.50;8.97;;;;;;;10.25;93.11;96716.28;4984269;28;20041;-77
2021/09/23 05:45:02;;;;;;;9.67;6.47;;;;;;;10.53;91.79;96722.41;4984416;28;20092;-77
2021/09/23 05:47:28;;;;;;;11.90;6.40;;;;;;;10.50;90.99;96725.34;4972289;28;20386;-77
2021/09/23 05:49:54;;;;;;;10.27;6.07;;;;;;;10.78;90.01;96717.41;4990486;28;20487;-77
2021/09/23 05:52:20;;;;;;;12.00;5.53;;;;;;;10.91;90.34;96728.41;4979257;28;20121;-77
2021/09/23 05:54:47;;;;;;;11.13;5.50;;;;;;;11.17;88.75;96727.66;4989823;28;20369;-77
2021/09/23 05:57:19;;;;;;;11.47;6.10;;;;;;;11.28;88.23;96722.16;5006318;28;20058;-77
2021/09/23 05:59:45;;;;;;;9.80;5.30;;;;;;;11.81;85.45;96721.25;4972811;28;20151;-77
2021/09/23 06:02:11;;;;;;;11.60;6.03;;;;;;;11.86;84.41;96729.53;4975145;28;20105;-77
2021/09/23 06:04:37;;;;;;;17.13;11.60;;;;;;;12.07;83.43;96729.16;4955080;28;20031;-77
2021/09/23 06:07:02;;;;;;;13.27;8.87;;;;;;;12.08;83.75;96732.66;4987359;28;20153;-77
2021/09/23 06:09:28;;;;;;;13.83;7.17;;;;;;;12.46;81.30;96732.16;5005778;28;20043;-77
2021/09/23 06:11:55;;;;;;;11.67;7.30;;;;;;;12.52;80.46;96732.53;4977056;28;20033;-77
2021/09/23 06:14:21;;;;;;;16.53;7.83;;;;;;;12.26;82.29;96728.13;4969984;28;20457;-77
2021/09/23 06:16:46;;;;;;;13.87;7.13;;;;;;;12.25;83.16;96732.56;4973119;28;20058;-77
2021/09/23 06:19:12;;;;;;;14.13;6.67;;;;;;;12.41;83.60;96731.81;4986255;28;20041;-77
2021/09/23 06:21:39;;;;;;;10.17;6.50;;;;;;;13.28;79.29;96734.22;4993177;28;20425;-77
2021/09/23 06:24:05;;;;;;;12.77;5.83;;;;;;;14.10;76.18;96733.16;4980637;28;20108;-77
2021/09/23 06:26:31;;;;;;;14.83;6.90;;;;;;;13.99;75.89;96730.06;4991380;28;20034;-77
2021/09/23 06:28:58;;;;;;;10.97;5.90;;;;;;;14.14;75.11;96731.00;4981267;28;20043;-75
2021/09/23 06:31:23;;;;;;;13.23;6.60;;;;;;;13.96;74.38;96727.75;4979263;28;20041;-75
2021/09/23 06:33:50;;;;;;;10.07;6.40;;;;;;;14.24;73.81;96729.00;4975006;28;20046;-75
2021/09/23 06:36:16;;;;;;;11.67;5.33;;;;;;;13.79;74.89;96719.84;4964884;28;20400;-75
2021/09/23 06:38:42;;;;;;;9.07;6.17;;;;;;;14.15;72.87;96714.13;4975884;28;20153;-75
2021/09/23 06:41:13;;;;;;;10.70;5.53;;;;;;;14.05;74.89;96714.34;4984121;28;20029;-75
2021/09/23 06:43:40;;;;;;;12.73;6.27;;;;;;;14.05;74.89;96709.06;4958170;28;20038;-75
2021/09/23 06:46:06;;;;;;;9.33;5.13;;;;;;;13.80;76.50;96700.34;4992041;28;20097;-75
2021/09/23 06:48:32;;;;;;;8.80;5.53;;;;;;;14.15;75.54;96695.63;4982486;28;20042;-75
2021/09/23 06:50:57;;;;;;;9.60;5.37;;;;;;;14.29;75.00;96694.13;4999036;28;20026;-75
2021/09/23 06:53:23;;;;;;;9.77;5.30;;;;;;;14.36;74.11;96693.25;4997291;28;20049;-75
2021/09/23 06:55:49;;;;;;;10.73;5.17;;;;;;;15.14;70.86;96683.56;4986686;28;20046;-75
2021/09/23 06:58:14;;;;;;;9.97;5.13;;;;;;;15.49;69.72;96683.97;4963880;28;20114;-76
2021/09/23 07:00:59;;;;;;;8.97;4.80;;;;;;;15.31;68.77;96679.78;4975916;28;20066;-75
2021/09/23 07:04:03;;;;;;;9.23;4.30;;;;;;;15.40;67.45;96672.63;4955029;28;20043;-75
2021/09/23 07:06:54;;;;;;;8.63;5.10;;;;;;;15.68;66.34;96669.41;4960188;28;20038;-75
2021/09/23 07:09:25;;;;;;;11.13;4.47;;;;;;;15.66;65.67;96668.72;4982566;28;20039;-75
2021/09/23 07:11:51;;;;;;;9.15;4.13;;;;;;;15.57;65.74;96662.69;4982460;28;20036;-75
2021/09/23 07:14:17;;;;;;;9.10;3.85;;;;;;;16.15;63.21;96663.78;4965209;28;20420;-76
2021/09/23 07:16:45;;;;;;;9.63;4.20;;;;;;;16.64;61.03;96670.31;4971162;28;20038;-75
2021/09/23 07:19:11;;;;;;;9.85;4.55;;;;;;;16.88;59.14;96671.84;4986762;28;20080;-75
2021/09/23 07:21:39;;;;;;;11.63;4.68;;;;;;;16.89;60.68;96668.97;4971288;28;20030;-75
2021/09/23 07:24:05;;;;;;;5.95;3.00;;;;;;;16.76;59.21;96668.03;4962372;28;20504;-75
2021/09/23 07:26:31;;;;;;;7.35;3.33;;;;;;;17.40;57.39;96668.88;4982321;28;20042;-75
2021/09/23 07:28:58;;;;;;;8.05;3.95;;;;;;;17.72;57.20;96679.16;4976000;28;20504;-75
2021/09/23 07:31:24;;;;;;;12.30;3.63;;;;;;;18.07;56.14;96672.03;4984892;28;20058;-75
2021/09/23 07:33:50;;;;;;;5.30;2.53;;;;;;;18.46;53.29;96681.28;4990824;28;20021;-75
2021/09/23 07:36:17;;;;;;;7.45;3.25;;;;;;;18.44;54.33;96684.13;4996639;28;20762;-75
2021/09/23 07:38:43;;;;;;;8.93;3.05;;;;;;;18.37;52.93;96689.41;5005564;28;20030;-75
2021/09/23 07:41:09;;;;;;;6.15;3.03;;;;;;;17.57;54.09;96696.03;4980289;28;20489;-75
2021/09/23 07:43:35;;;;;;;9.02;2.92;;;;;;;17.52;53.92;96689.63;4981407;28;20046;-75
2021/09/23 07:46:02;;;;;;;6.05;2.40;;;;;;;17.57;54.19;96695.19;4981211;28;20118;-75
2021/09/23 07:48:28;;;;;;;6.38;2.08;;;;;;;17.65;53.33;96701.19;4966535;28;20515;-75
2021/09/23 07:50:57;;;;;;;6.55;2.80;;;;;;;17.57;53.27;96704.00;4975899;28;20034;-75
2021/09/23 07:53:25;;;;;;;8.38;2.83;;;;;;;17.64;53.15;96704.88;4984692;28;20026;-75
2021/09/23 07:55:52;;;;;;;8.10;3.70;;;;;;;18.55;50.33;96696.91;4981439;28;20039;-76
2021/09/23 07:58:18;;;;;;;7.93;2.75;;;;;;;18.19;51.17;96702.44;4980239;28;20025;-75
2021/09/23 08:00:44;;;;;;;11.93;3.42;;;;;;;19.03;50.48;96704.06;4967961;28;20030;-75
2021/09/23 08:03:10;;;;;;;7.18;3.00;;;;;;;19.69;49.45;96701.53;4994725;28;20040;-76
2021/09/23 08:05:38;;;;;;;9.95;2.83;;;;;;;20.13;48.03;96704.59;4996450;28;20030;-76
2021/09/23 08:08:05;;;;;;;6.25;3.78;;;;;;;20.37;49.92;96701.25;4980222;28;20050;-76
2021/09/23 08:10:31;;;;;;;8.30;3.45;;;;;;;20.53;45.84;96688.50;4964994;28;20031;-76
2021/09/23 08:12:58;;;;;;;8.20;2.75;;;;;;;19.69;47.97;96692.72;4977835;28;20030;-75
2021/09/23 08:15:25;;;;;;;6.90;2.47;;;;;;;20.36;46.70;96693.44;4977723;28;20407;-76
2021/09/23 08:18:03;;;;;;;7.47;2.28;;;;;;;19.91;47.70;96694.13;4979229;28;20022;-76
2021/09/23 08:20:49;;;;;;;4.07;2.00;;;;;;;19.58;47.48;96687.94;4999986;28;20261;-76
2021/09/23 08:23:17;;;;;;;5.20;1.90;;;;;;;20.02;46.01;96677.50;4997107;28;20030;-76
2021/09/23 08:25:44;;;;;;;3.17;1.67;;;;;;;20.48;43.58;96671.19;4975756;28;20085;-76
2021/09/23 08:28:12;;;;;;;6.95;2.38;;;;;;;20.21;44.48;96681.13;4973888;28;20038;-76
2021/09/23 08:30:42;;;;;;;3.92;1.85;;;;;;;19.88;45.53;96677.69;4981232;28;20034;-76
2021/09/23 08:33:08;;;;;;;7.28;2.22;;;;;;;20.81;43.95;96675.63;4997625;28;20049;-76
2021/09/23 08:35:34;;;;;;;4.75;1.80;;;;;;;21.05;42.95;96678.59;4982755;28;20019;-75
2021/09/23 08:38:01;;;;;;;4.90;1.70;;;;;;;21.40;43.23;96674.50;4985730;28;20030;-76
2021/09/23 08:40:29;;;;;;;5.00;2.10;;;;;;;21.61;42.44;96669.81;4993530;28;20032;-76
2021/09/23 08:42:55;;;;;;;6.65;2.13;;;;;;;22.22;42.29;96663.69;4969372;28;20026;-76
2021/09/23 08:45:22;;;;;;;4.40;1.90;;;;;;;21.96;41.21;96671.97;4950758;28;20094;-76
2021/09/23 08:47:49;;;;;;;6.38;2.00;;;;;;;21.24;42.97;96680.34;4977505;28;20026;-76
2021/09/23 08:50:18;;;;;;;3.88;2.30;;;;;;;22.93;40.00;96669.50;4988280;28;20022;-76
2021/09/23 08:52:47;;;;;;;5.30;2.05;;;;;;;22.64;40.80;96669.22;4987101;28;20033;-75
2021/09/23 08:55:28;;;;;;;4.32;2.33;;;;;;;21.99;40.56;96668.84;4980512;28;20037;-76
2021/09/23 08:58:06;;;;;;;4.75;2.10;;;;;;;22.63;40.18;96667.56;4972297;28;20045;-76
2021/09/23 09:00:35;;;;;;;6.13;1.95;;;;;;;22.76;39.80;96669.28;4978113;28;20100;-76
2021/09/23 09:03:10;;;;;;;4.32;2.03;;;;;;;22.67;40.24;96668.78;4973960;28;20579;-76
2021/09/23 09:06:17;;;;;;;5.30;2.03;;;;;;;22.18;40.93;96664.38;4994954;28;20562;-76
2021/09/23 09:09:17;;;;;;;5.10;1.88;;;;;;;22.30;40.66;96657.22;5000747;28;20034;-76
2021/09/23 09:11:46;;;;;;;6.10;2.50;;;;;;;22.05;41.01;96654.59;4984439;28;20022;-76
2021/09/23 09:14:30;;;;;;;5.47;1.95;;;;;;;22.67;40.46;96657.22;4987283;28;20030;-77
2021/09/23 09:17:02;;;;;;;3.25;1.80;;;;;;;22.23;40.66;96653.81;4989615;28;20019;-76
2021/09/23 09:19:47;;;;;;;5.72;1.92;;;;;;;23.25;39.42;96644.06;4982831;28;20069;-76
2021/09/23 09:22:18;;;;;;;4.32;1.95;;;;;;;22.95;39.01;96644.09;4965359;28;20030;-76
2021/09/23 09:25:09;;;;;;;5.07;2.05;;;;;;;22.59;40.16;96645.75;4954039;28;20027;-76
2021/09/23 09:27:42;;;;;;;5.93;1.77;;;;;;;24.11;37.25;96625.75;4974350;28;20042;-77
2021/09/23 09:30:15;;;;;;;5.03;1.63;;;;;;;23.28;39.20;96634.75;4958654;28;20130;-76
2021/09/23 09:32:51;;;;;;;4.80;2.15;;;;;;;24.09;38.02;96622.47;4978394;28;20037;-76
2021/09/23 09:35:26;;;;;;;4.50;1.50;;;;;;;23.98;38.40;96616.06;4975659;28;20034;-77
2021/09/23 09:37:56;;;;;;;5.85;1.95;;;;;;;24.04;38.46;96613.47;4972559;28;20404;-76
2021/09/23 09:40:30;;;;;;;4.30;1.67;;;;;;;24.45;37.40;96604.44;4989725;28;20049;-77
2021/09/23 09:42:56;;;;;;;5.47;2.00;;;;;;;24.68;36.77;96600.84;4984006;28;20177;-77
2021/09/23 09:45:27;;;;;;;3.28;1.70;;;;;;;24.59;36.36;96599.59;4993142;28;20031;-76
2021/09/23 09:47:55;;;;;;;5.68;1.80;;;;;;;23.98;37.98;96593.75;4961174;28;20418;-76
2021/09/23 09:50:37;;;;;;;4.22;2.20;;;;;;;24.52;37.41;96588.97;4973976;28;20022;-76
2021/09/23 09:53:06;;;;;;;3.97;1.88;;;;;;;25.37;36.21;96590.00;5003027;28;20030;-76
2021/09/23 09:55:41;;;;;;;3.47;1.75;;;;;;;24.34;36.91;96591.78;4997820;28;20451;-76
2021/09/23 09:58:11;;;;;;;4.88;1.67;;;;;;;24.67;36.47;96585.75;4967919;28;20467;-76
2021/09/23 10:00:40;;;;;;;2.97;1.73;;;;;;;25.81;34.93;96580.19;4989388;28;20031;-76
2021/09/23 10:03:06;;;;;;;6.63;1.85;;;;;;;25.63;35.63;96583.13;5002150;28;20384;-77
2021/09/23 10:05:37;;;;;;;3.58;1.75;;;;;;;25.11;35.67;96586.00;4992223;28;20036;-76
2021/09/23 10:08:08;;;;;;;3.35;1.45;;;;;;;24.77;36.28;96590.50;4991234;28;20034;-76
2021/09/23 10:10:34;;;;;;;4.68;2.00;;;;;;;26.00;34.23;96569.97;4963987;28;20394;-77
2021/09/23 10:13:07;;;;;;;3.90;1.80;;;;;;;25.43;36.67;96572.88;4983248;28;20018;-78
2021/09/23 10:15:33;;;;;;;2.88;1.80;;;;;;;24.55;36.08;96577.75;4987161;28;20030;-77
2021/09/23 10:18:01;;;;;;;3.05;1.60;;;;;;;25.51;35.62;96566.25;4995195;28;20039;-77
2021/09/23 10:20:28;;;;;;;3.80;1.98;;;;;;;26.06;34.39;96563.56;4970447;28;20540;-77
2021/09/23 10:22:56;;;;;;;3.50;1.70;;;;;;;25.37;34.53;96574.66;4977373;28;20030;-77
2021/09/23 10:25:26;;;;;;;3.10;1.73;;;;;;;25.79;34.04;96570.72;4964174;28;20039;-76
2021/09/23 10:27:59;;;;;;;3.38;1.65;;;;;;;25.70;33.74;96569.50;4970200;28;20093;-76
2021/09/23 10:30:36;;;;;;;3.90;1.52;;;;;;;26.03;33.14;96577.53;4987170;28;20034;-77
2021/09/23 10:33:05;;;;;;;2.25;1.50;;;;;;;25.46;33.53;96587.72;4981838;28;20440;-77
2021/09/23 10:35:32;;;;;;;4.60;1.80;;;;;;;26.62;32.15;96573.41;5002382;28;20045;-76
2021/09/23 10:38:04;;;;;;;4.05;1.92;;;;;;;25.44;34.01;96579.06;4958391;28;20118;-76
2021/09/23 10:40:32;;;;;;;3.17;1.83;;;;;;;25.08;34.39;96578.41;4989298;28;20507;-76
2021/09/23 10:43:03;;;;;;;4.00;1.75;;;;;;;25.40;35.11;96574.16;4979456;28;20019;-76
2021/09/23 10:45:30;;;;;;;5.40;1.97;;;;;;;25.55;34.89;96576.28;4975181;28;20039;-77
2021/09/23 10:48:00;;;;;;;4.80;1.88;;;;;;;25.75;36.10;96570.38;4963876;28;20026;-76
2021/09/23 10:50:33;;;;;;;5.22;1.73;;;;;;;26.04;37.20;96573.78;5004119;28;20035;-76
2021/09/23 10:53:05;;;;;;;4.53;2.10;;;;;;;26.50;34.56;96566.28;4995298;28;20100;-77
2021/09/23 10:55:35;;;;;;;3.72;2.10;;;;;;;26.38;33.97;96578.25;4966979;28;20456;-76
2021/09/23 10:58:08;;;;;;;4.63;2.00;;;;;;;25.91;35.74;96574.13;4978468;28;20035;-76
2021/09/23 11:00:35;;;;;;;5.03;2.10;;;;;;;26.06;36.48;96577.03;4986237;28;20023;-77
2021/09/23 11:03:05;;;;;;;3.92;2.03;;;;;;;26.28;36.28;96568.97;4974667;28;20077;-77
2021/09/23 11:05:32;;;;;;;3.72;2.05;;;;;;;26.21;36.55;96564.81;4974693;28;20113;-77
2021/09/23 11:08:01;;;;;;;3.40;1.77;;;;;;;26.37;36.73;96574.75;4959191;28;20022;-77
2021/09/23 11:10:27;;;;;;;4.57;2.25;;;;;;;26.45;35.72;96574.28;5003538;28;20026;-77
2021/09/23 11:12:55;;;;;;;5.00;2.45;;;;;;;25.44;36.39;96579.06;4962179;28;20048;-77
2021/09/23 11:15:24;;;;;;;4.50;2.35;;;;;;;25.98;35.52;96573.97;4970918;28;20027;-77
2021/09/23 11:17:54;;;;;;;5.97;2.45;;;;;;;25.42;37.89;96575.78;4980942;28;20030;-76
2021/09/23 11:20:27;;;;;;;5.85;2.25;;;;;;;25.89;36.67;96565.50;5003999;28;20041;-77
2021/09/23 11:23:02;;;;;;;8.32;5.93;;;;;;;26.45;35.80;96568.06;4982421;28;20036;-76
2021/09/23 11:25:35;;;;;;;5.13;2.78;;;;;;;26.26;35.39;96563.03;4976581;28;20030;-77
2021/09/23 11:28:02;;;;;;;5.07;2.08;;;;;;;26.25;36.14;96555.16;4972494;28;20484;-76
2021/09/23 11:30:32;;;;;;;4.28;2.38;;;;;;;26.89;34.57;96551.84;4976355;28;20035;-77
2021/09/23 11:33:01;;;;;;;5.22;2.38;;;;;;;26.03;35.26;96544.41;4981673;28;20125;-77
2021/09/23 11:35:30;;;;;;;4.93;2.00;;;;;;;26.04;35.33;96549.53;4965352;28;20061;-77
2021/09/23 11:37:57;;;;;;;4.50;2.28;;;;;;;26.20;35.80;96537.06;4951566;28;20126;-77